Time;durP1;ratioP1;P1;durP2;ratioP2;P2;SDS_P1;SDS_P2;PMS_P1;PMS_P2;Temp;Humidity;BMP_temperature;BMP_pressure;BME280_temperature;BME280_humidity;BME280_pressure;Samples;Min_cycle;Max_cycle;Signal;HPM_P1;HPM_P2
2023/09/02 00:00:42;;;;;;;5.77;1.93;;;18.60;83.20;;;;;;5063562;28;20513;-88
2023/09/02 00:03:10;;;;;;;6.97;2.07;;;18.50;83.20;;;;;;5058698;28;20459;-89
2023/09/02 00:05:39;;;;;;;5.30;1.70;;;18.40;83.20;;;;;;5065898;28;20517;-88
2023/09/02 00:08:07;;;;;;;4.77;1.90;;;18.40;83.20;;;;;;5058079;28;20463;-89
2023/09/02 00:10:37;;;;;;;6.20;2.03;;;18.30;83.10;;;;;;5058120;28;20470;-87
2023/09/02 00:13:05;;;;;;;4.60;2.00;;;18.20;83.30;;;;;;5041256;28;20502;-88
2023/09/02 00:15:33;;;;;;;6.93;2.00;;;18.20;83.50;;;;;;5044590;28;20553;-87
2023/09/02 00:18:05;;;;;;;5.47;2.10;;;18.20;83.50;;;;;;5065121;28;20493;-90
2023/09/02 00:20:34;;;;;;;9.20;2.27;;;18.20;83.40;;;;;;5059769;28;20466;-89
2023/09/02 00:23:02;;;;;;;8.93;2.33;;;18.20;83.40;;;;;;5063207;28;20956;-89
2023/09/02 00:25:40;;;;;;;6.03;1.93;;;18.20;83.40;;;;;;5049712;28;20461;-88
2023/09/02 00:28:08;;;;;;;5.07;2.00;;;18.20;83.40;;;;;;5048966;28;20549;-88
2023/09/02 00:30:36;;;;;;;10.10;2.20;;;18.20;83.30;;;;;;5045785;28;20569;-90
2023/09/02 00:33:06;;;;;;;4.53;1.63;;;18.20;83.40;;;;;;5061826;28;20470;-91
2023/09/02 00:35:34;;;;;;;5.13;1.70;;;18.20;83.40;;;;;;5047135;28;21103;-90
2023/09/02 00:38:02;;;;;;;6.77;1.60;;;18.20;83.40;;;;;;5050578;28;20535;-90
2023/09/02 00:40:31;;;;;;;7.20;2.00;;;18.20;83.20;;;;;;5048461;28;20499;-88
2023/09/02 00:43:01;;;;;;;5.70;1.50;;;18.20;83.00;;;;;;5049023;28;20447;-88
2023/09/02 00:45:30;;;;;;;5.20;1.80;;;18.10;83.00;;;;;;5046318;28;20462;-88
2023/09/02 00:48:00;;;;;;;4.77;1.80;;;18.10;83.10;;;;;;5064118;28;20455;-89
2023/09/02 00:50:29;;;;;;;5.80;2.30;;;18.10;82.90;;;;;;5046813;28;20521;-89
2023/09/02 00:52:57;;;;;;;5.97;1.80;;;18.00;83.00;;;;;;5046333;28;20550;-89
2023/09/02 00:55:29;;;;;;;4.63;2.00;;;18.00;83.00;;;;;;5044961;28;20466;-91
2023/09/02 00:57:59;;;;;;;6.17;2.20;;;18.00;83.00;;;;;;5046642;28;20571;-88
2023/09/02 01:00:27;;;;;;;5.10;1.83;;;17.90;83.10;;;;;;5048080;28;20453;-88
2023/09/02 01:02:55;;;;;;;5.13;1.93;;;17.90;83.00;;;;;;5071146;28;20458;-88
2023/09/02 01:05:29;;;;;;;6.83;1.93;;;17.90;83.00;;;;;;5055715;28;20480;-88
2023/09/02 01:07:59;;;;;;;6.30;1.77;;;17.90;82.90;;;;;;5060179;28;20861;-90
2023/09/02 01:10:29;;;;;;;4.53;1.50;;;17.90;82.90;;;;;;5064029;28;20528;-88
2023/09/02 01:12:57;;;;;;;7.30;1.70;;;18.00;82.80;;;;;;5066651;28;20508;-88
2023/09/02 01:15:25;;;;;;;7.57;2.07;;;17.90;82.70;;;;;;5064345;28;20469;-88
2023/09/02 01:17:54;;;;;;;8.83;2.40;;;17.90;82.60;;;;;;5065018;28;21078;-87
2023/09/02 01:20:25;;;;;;;6.50;2.43;;;17.90;82.60;;;;;;5062082;28;20553;-90
2023/09/02 01:23:06;;;;;;;6.63;1.77;;;17.90;82.60;;;;;;5061246;28;20454;-89
2023/09/02 01:25:56;;;;;;;12.33;2.30;;;17.80;82.70;;;;;;5061905;28;20705;-88
2023/09/02 01:28:30;;;;;;;4.80;2.10;;;17.80;82.70;;;;;;5080366;28;20863;-90
2023/09/02 01:31:00;;;;;;;4.23;1.77;;;17.80;82.60;;;;;;5061042;28;20996;-90
2023/09/02 01:33:30;;;;;;;8.67;1.93;;;17.70;82.60;;;;;;5075702;28;20461;-90
2023/09/02 01:36:00;;;;;;;5.13;1.83;;;17.70;82.60;;;;;;5080709;28;21007;-89
2023/09/02 01:38:32;;;;;;;5.97;2.07;;;17.70;82.50;;;;;;5062790;28;20503;-90
2023/09/02 01:41:05;;;;;;;12.20;2.47;;;17.60;82.60;;;;;;5068385;28;20548;-88
2023/09/02 01:43:36;;;;;;;5.47;2.60;;;17.60;82.60;;;;;;5066002;28;20461;-90
2023/09/02 01:46:04;;;;;;;8.03;1.90;;;17.60;82.60;;;;;;5072698;28;20446;-89
2023/09/02 01:48:32;;;;;;;4.53;2.03;;;17.50;82.60;;;;;;5063875;28;20519;-89
2023/09/02 01:51:02;;;;;;;4.40;2.20;;;17.50;82.60;;;;;;5067088;28;20544;-88
2023/09/02 01:53:30;;;;;;;4.90;2.03;;;17.50;82.60;;;;;;5067726;28;21789;-88
2023/09/02 01:56:00;;;;;;;4.97;2.20;;;17.50;82.60;;;;;;5084443;28;20488;-89
2023/09/02 01:58:29;;;;;;;4.67;1.53;;;17.50;82.80;;;;;;5083551;28;20997;-88
2023/09/02 02:00:59;;;;;;;8.07;2.20;;;17.60;82.80;;;;;;5069601;28;20469;-90
2023/09/02 02:03:39;;;;;;;3.70;1.50;;;17.60;82.60;;;;;;5066600;28;20477;-88
2023/09/02 02:06:09;;;;;;;4.40;1.97;;;17.60;82.60;;;;;;5079208;28;20457;-89
2023/09/02 02:08:44;;;;;;;6.10;1.97;;;17.60;82.40;;;;;;5068658;28;20545;-89
2023/09/02 02:11:15;;;;;;;5.60;1.70;;;17.50;82.40;;;;;;5070669;28;20452;-88
2023/09/02 02:13:44;;;;;;;6.37;1.70;;;17.50;82.20;;;;;;5063902;28;20492;-90
2023/09/02 02:16:22;;;;;;;4.90;1.93;;;17.50;82.20;;;;;;5084668;28;20511;-90
2023/09/02 02:18:50;;;;;;;5.17;1.60;;;17.50;82.20;;;;;;5068336;28;20456;-90
2023/09/02 02:21:19;;;;;;;5.70;2.10;;;17.50;82.10;;;;;;5078125;28;20504;-88
2023/09/02 02:23:47;;;;;;;5.87;1.60;;;17.40;82.00;;;;;;5064096;28;20513;-88
2023/09/02 02:26:18;;;;;;;4.83;1.80;;;17.40;82.10;;;;;;5077157;28;20509;-90
2023/09/02 02:28:48;;;;;;;16.63;2.77;;;17.30;82.00;;;;;;5066148;28;20461;-88
2023/09/02 02:31:17;;;;;;;6.30;2.70;;;17.30;82.10;;;;;;5062673;28;20470;-88
2023/09/02 02:33:46;;;;;;;7.37;3.50;;;17.30;82.20;;;;;;5077581;28;20460;-90
2023/09/02 02:36:14;;;;;;;9.10;3.10;;;17.30;82.20;;;;;;5065530;28;20473;-89
2023/09/02 02:38:42;;;;;;;14.70;4.20;;;17.30;82.30;;;;;;5060543;28;20981;-90
2023/09/02 02:41:10;;;;;;;7.50;3.93;;;17.30;82.30;;;;;;5066930;28;20515;-90
2023/09/02 02:43:39;;;;;;;7.60;3.27;;;17.30;82.30;;;;;;5066485;28;20545;-88
2023/09/02 02:46:07;;;;;;;9.63;3.50;;;17.30;82.30;;;;;;5068224;28;20862;-89
2023/09/02 02:48:37;;;;;;;7.67;3.27;;;17.30;82.30;;;;;;5065899;28;20560;-89
2023/09/02 02:51:05;;;;;;;8.00;3.07;;;17.30;82.30;;;;;;5077703;28;20479;-91
2023/09/02 02:53:34;;;;;;;6.80;2.80;;;17.30;82.30;;;;;;5070731;28;20491;-90
2023/09/02 02:56:04;;;;;;;10.00;3.50;;;17.20;82.40;;;;;;5066831;28;20480;-89
2023/09/02 02:58:32;;;;;;;8.97;4.00;;;17.20;82.20;;;;;;5058534;28;20461;-88
2023/09/02 03:01:04;;;;;;;8.30;3.70;;;17.20;82.00;;;;;;5068866;28;20556;-88
2023/09/02 03:03:33;;;;;;;17.37;3.73;;;17.10;81.90;;;;;;5064642;28;20460;-90
2023/09/02 03:06:04;;;;;;;19.40;3.47;;;17.00;81.80;;;;;;5069523;28;20480;-88
2023/09/02 03:08:33;;;;;;;10.30;3.33;;;16.80;82.20;;;;;;5062375;28;20453;-88
2023/09/02 03:11:14;;;;;;;8.40;3.23;;;16.80;82.30;;;;;;5077115;28;20563;-88
2023/09/02 03:13:43;;;;;;;11.33;3.60;;;16.80;82.60;;;;;;5065022;28;20827;-88
2023/09/02 03:16:18;;;;;;;16.07;4.73;;;16.70;82.50;;;;;;5082911;28;20474;-90
2023/09/02 03:18:49;;;;;;;15.03;3.83;;;16.70;82.60;;;;;;5081468;28;20832;-87
2023/09/02 03:21:21;;;;;;;8.80;4.17;;;16.70;82.70;;;;;;5080659;28;20460;-88
2023/09/02 03:23:50;;;;;;;9.43;4.10;;;16.70;82.80;;;;;;5076423;28;20449;-89
2023/09/02 03:26:19;;;;;;;7.47;3.80;;;16.70;82.80;;;;;;5063806;28;20444;-89
2023/09/02 03:28:50;;;;;;;7.40;4.30;;;16.70;82.90;;;;;;5061567;28;20492;-87
2023/09/02 03:31:21;;;;;;;6.97;4.10;;;16.80;83.00;;;;;;5058812;28;20900;-89
2023/09/02 03:33:52;;;;;;;7.77;4.63;;;16.80;83.10;;;;;;5076097;28;20551;-87
2023/09/02 03:36:21;;;;;;;7.53;4.20;;;16.80;83.00;;;;;;5076835;28;20473;-90
2023/09/02 03:38:49;;;;;;;12.90;4.20;;;16.90;83.00;;;;;;5070055;28;20461;-90
2023/09/02 03:41:19;;;;;;;12.03;4.00;;;16.90;83.00;;;;;;5079700;28;20460;-90
2023/09/02 03:43:47;;;;;;;8.70;4.40;;;16.90;83.00;;;;;;5067598;28;20464;-89
2023/09/02 03:46:16;;;;;;;7.97;3.97;;;16.90;83.00;;;;;;5066216;28;20543;-88
2023/09/02 03:48:48;;;;;;;7.20;4.03;;;16.90;82.90;;;;;;5067668;28;20466;-89
2023/09/02 03:51:18;;;;;;;7.87;4.43;;;17.00;82.80;;;;;;5083693;28;20491;-89
2023/09/02 03:53:54;;;;;;;7.33;4.60;;;17.00;82.80;;;;;;5071531;28;20574;-89
2023/09/02 03:56:22;;;;;;;7.03;4.77;;;17.00;82.80;;;;;;5073189;28;20477;-90
2023/09/02 03:58:50;;;;;;;6.00;3.80;;;17.00;82.80;;;;;;5079726;28;20456;-89
2023/09/02 04:01:21;;;;;;;8.00;4.23;;;17.00;82.80;;;;;;5078879;28;20469;-89
2023/09/02 04:03:49;;;;;;;6.47;3.80;;;17.00;82.80;;;;;;5070139;28;20472;-88
2023/09/02 04:06:17;;;;;;;6.80;3.80;;;17.10;82.70;;;;;;5067768;28;20568;-89
2023/09/02 04:08:46;;;;;;;8.63;3.87;;;17.10;82.70;;;;;;5083351;28;20462;-88
2023/09/02 04:11:16;;;;;;;7.90;3.83;;;17.10;82.70;;;;;;5081410;28;20475;-89
2023/09/02 04:13:45;;;;;;;6.13;3.63;;;17.10;82.70;;;;;;5065020;28;20458;-90
2023/09/02 04:16:15;;;;;;;9.80;4.43;;;17.10;82.70;;;;;;5083770;28;20962;-89
2023/09/02 04:18:44;;;;;;;6.13;4.03;;;17.10;82.70;;;;;;5065467;28;20468;-88
2023/09/02 04:21:18;;;;;;;8.20;3.93;;;17.20;82.60;;;;;;5083638;28;20467;-90
2023/09/02 04:23:53;;;;;;;8.57;4.47;;;17.20;82.60;;;;;;5068506;28;20540;-90
2023/09/02 04:26:22;;;;;;;6.43;3.93;;;17.20;82.50;;;;;;5084956;28;20488;-88
2023/09/02 04:28:55;;;;;;;8.70;4.00;;;17.20;82.50;;;;;;5076484;28;20465;-89
2023/09/02 04:31:25;;;;;;;6.00;3.50;;;17.20;82.50;;;;;;5077397;28;20509;-88
2023/09/02 04:33:55;;;;;;;6.53;3.23;;;17.20;82.50;;;;;;5081494;28;20472;-90
2023/09/02 04:36:24;;;;;;;7.23;3.43;;;17.10;82.40;;;;;;5084895;28;20450;-88
2023/09/02 04:38:57;;;;;;;6.00;3.60;;;17.10;82.30;;;;;;5069403;28;20456;-90
2023/09/02 04:41:28;;;;;;;7.07;4.00;;;17.10;82.30;;;;;;5063030;28;20556;-89
2023/09/02 04:43:58;;;;;;;6.37;3.90;;;17.10;82.40;;;;;;5068234;28;20500;-90
2023/09/02 04:46:26;;;;;;;10.80;4.53;;;17.10;82.40;;;;;;5073542;28;20449;-88
2023/09/02 04:48:54;;;;;;;8.60;4.10;;;17.10;82.40;;;;;;5062563;28;20441;-88
2023/09/02 04:51:23;;;;;;;9.87;5.70;;;17.10;82.40;;;;;;5065059;28;20459;-89
2023/09/02 04:53:51;;;;;;;13.30;6.40;;;17.10;82.50;;;;;;5083005;28;20521;-88
2023/09/02 04:56:20;;;;;;;9.40;6.20;;;17.10;82.50;;;;;;5060650;28;20458;-90
2023/09/02 04:58:52;;;;;;;10.40;5.40;;;17.10;82.60;;;;;;5065632;28;20473;-89
2023/09/02 05:01:23;;;;;;;12.13;4.80;;;17.10;82.50;;;;;;5062618;28;20465;-89
2023/09/02 05:03:55;;;;;;;11.20;5.30;;;17.10;82.60;;;;;;5066471;28;20457;-90
2023/09/02 05:06:23;;;;;;;11.90;5.73;;;17.10;82.60;;;;;;5059294;28;20489;-90
2023/09/02 05:08:56;;;;;;;14.40;4.90;;;17.10;82.60;;;;;;5079051;28;20463;-88
2023/09/02 05:11:28;;;;;;;13.07;6.60;;;17.10;82.70;;;;;;5065333;28;20464;-90
2023/09/02 05:13:59;;;;;;;9.63;5.53;;;17.10;82.70;;;;;;5075068;28;20462;-89
2023/09/02 05:16:28;;;;;;;12.77;5.93;;;17.10;82.80;;;;;;5069981;28;20995;-88
2023/09/02 05:18:56;;;;;;;9.40;5.10;;;17.10;82.80;;;;;;5082698;28;21530;-89
2023/09/02 05:21:24;;;;;;;12.43;4.70;;;17.10;82.90;;;;;;5065017;28;20457;-89
2023/09/02 05:23:53;;;;;;;7.60;4.43;;;17.10;83.00;;;;;;5071158;28;20465;-90
2023/09/02 05:26:22;;;;;;;7.27;3.93;;;17.10;83.10;;;;;;5077355;28;20457;-89
2023/09/02 05:28:51;;;;;;;5.70;3.27;;;17.10;83.10;;;;;;5080586;28;20467;-90
2023/09/02 05:31:20;;;;;;;7.50;3.90;;;17.20;83.20;;;;;;5069556;28;20557;-87
2023/09/02 05:33:49;;;;;;;8.07;4.00;;;17.20;83.30;;;;;;5080548;28;20915;-90
2023/09/02 05:36:17;;;;;;;6.40;3.77;;;17.30;83.30;;;;;;5081092;28;20951;-88
2023/09/02 05:38:45;;;;;;;6.77;3.77;;;17.30;83.20;;;;;;5069735;28;20543;-89
2023/09/02 05:41:14;;;;;;;8.03;4.23;;;17.30;83.30;;;;;;5072664;28;20978;-88
2023/09/02 05:43:42;;;;;;;5.70;3.10;;;17.30;83.30;;;;;;5086865;28;20458;-88
2023/09/02 05:46:42;;;;;;;6.03;2.93;;;17.30;83.30;;;;;;5061421;28;20462;-88
2023/09/02 05:49:13;;;;;;;6.03;2.80;;;17.40;83.40;;;;;;5065413;28;20495;-88
2023/09/02 05:51:41;;;;;;;6.40;2.80;;;17.40;83.40;;;;;;5071486;28;20459;-90
2023/09/02 05:54:10;;;;;;;4.87;2.40;;;17.40;83.40;;;;;;5069630;28;20507;-90
2023/09/02 05:56:38;;;;;;;5.90;2.80;;;17.40;83.40;;;;;;5070028;28;20475;-87
2023/09/02 05:59:07;;;;;;;5.93;3.03;;;17.40;83.40;;;;;;5070093;28;20499;-88
2023/09/02 06:01:50;;;;;;;7.00;2.93;;;17.50;83.40;;;;;;5080772;28;20548;-88
2023/09/02 06:04:18;;;;;;;7.23;2.87;;;17.50;83.50;;;;;;5065016;28;21002;-89
2023/09/02 06:06:46;;;;;;;7.57;2.70;;;17.50;83.60;;;;;;5071157;28;20573;-89
2023/09/02 06:09:14;;;;;;;6.00;2.70;;;17.50;83.60;;;;;;5068525;28;20457;-90
2023/09/02 06:11:42;;;;;;;5.43;3.13;;;17.50;83.70;;;;;;5063541;28;20492;-90
2023/09/02 06:14:10;;;;;;;4.80;2.60;;;17.50;83.70;;;;;;5067904;28;20553;-88
2023/09/02 06:16:38;;;;;;;5.30;3.00;;;17.60;83.80;;;;;;5061722;28;20457;-89
2023/09/02 06:19:08;;;;;;;5.10;2.50;;;17.60;83.80;;;;;;5082004;28;21070;-90
2023/09/02 06:21:36;;;;;;;6.67;3.80;;;17.60;83.80;;;;;;5063536;28;20880;-89
2023/09/02 06:24:15;;;;;;;5.07;2.70;;;17.70;83.90;;;;;;5088377;28;20464;-90
2023/09/02 06:26:46;;;;;;;5.63;3.57;;;17.70;84.00;;;;;;5078179;28;20523;-88
2023/09/02 06:29:14;;;;;;;5.70;3.10;;;17.80;84.00;;;;;;5063256;28;20457;-89
2023/09/02 06:31:43;;;;;;;6.43;3.20;;;17.80;84.20;;;;;;5073703;28;20469;-88
2023/09/02 06:34:12;;;;;;;7.10;3.27;;;17.80;84.20;;;;;;5083582;28;20473;-89
2023/09/02 06:36:40;;;;;;;5.23;2.90;;;17.90;84.30;;;;;;5063326;28;20461;-88
2023/09/02 06:39:10;;;;;;;6.87;3.67;;;18.00;84.30;;;;;;5065645;28;20565;-89
2023/09/02 06:41:38;;;;;;;5.97;2.93;;;18.00;84.40;;;;;;5071452;28;20872;-90
2023/09/02 06:44:11;;;;;;;5.77;3.23;;;18.00;84.40;;;;;;5065423;28;20458;-88
2023/09/02 06:46:41;;;;;;;4.80;2.90;;;18.10;84.40;;;;;;5068805;28;20453;-89
2023/09/02 06:49:09;;;;;;;6.50;4.13;;;18.10;84.50;;;;;;5082907;28;20458;-88
2023/09/02 06:51:39;;;;;;;12.00;4.23;;;18.10;84.50;;;;;;5064569;28;20963;-90
2023/09/02 06:54:09;;;;;;;6.70;4.37;;;18.20;84.70;;;;;;5065445;28;20480;-90
2023/09/02 06:56:37;;;;;;;7.37;4.63;;;18.20;84.70;;;;;;5077283;28;20465;-90
2023/09/02 06:59:05;;;;;;;8.60;5.23;;;18.20;84.70;;;;;;5067220;28;20497;-89
2023/09/02 07:01:33;;;;;;;8.87;5.83;;;18.30;84.70;;;;;;5058226;28;20550;-89
2023/09/02 07:04:02;;;;;;;8.27;5.33;;;18.30;84.90;;;;;;5058397;28;20475;-90
2023/09/02 07:06:30;;;;;;;7.00;4.53;;;18.40;84.90;;;;;;5083741;28;20929;-89
2023/09/02 07:09:00;;;;;;;7.83;4.47;;;18.40;85.00;;;;;;5069938;28;20454;-90
2023/09/02 07:11:29;;;;;;;7.13;4.30;;;18.40;85.00;;;;;;5063252;28;20510;-88
2023/09/02 07:13:58;;;;;;;7.07;5.30;;;18.50;85.10;;;;;;5056152;28;20486;-88
2023/09/02 07:16:27;;;;;;;8.10;5.27;;;18.50;85.10;;;;;;5069608;28;20545;-90
2023/09/02 07:18:55;;;;;;;7.47;4.80;;;18.60;85.00;;;;;;5088488;28;20478;-87
2023/09/02 07:21:23;;;;;;;8.40;5.13;;;18.60;84.90;;;;;;5081245;28;20461;-92
2023/09/02 07:23:52;;;;;;;7.07;5.20;;;18.70;84.90;;;;;;5058273;28;20462;-88
2023/09/02 07:26:28;;;;;;;8.20;6.40;;;18.70;84.80;;;;;;5062005;28;20462;-88
2023/09/02 07:28:56;;;;;;;10.70;5.47;;;18.80;84.80;;;;;;5059706;28;21020;-88
2023/09/02 07:31:25;;;;;;;7.03;3.60;;;18.80;84.70;;;;;;5063211;28;20473;-87
2023/09/02 07:33:53;;;;;;;7.60;4.60;;;18.80;84.70;;;;;;5071777;28;20485;-92
2023/09/02 07:36:21;;;;;;;8.93;5.30;;;18.90;84.70;;;;;;5076384;28;20455;-91
2023/09/02 07:38:49;;;;;;;6.80;5.10;;;19.00;84.70;;;;;;5079755;28;20527;-89
2023/09/02 07:41:17;;;;;;;6.60;4.90;;;19.00;84.60;;;;;;5061018;28;20454;-91
2023/09/02 07:43:47;;;;;;;6.60;4.90;;;19.10;84.50;;;;;;5063578;28;20476;-91
2023/09/02 07:46:24;;;;;;;8.53;4.30;;;19.10;84.50;;;;;;5084981;28;20465;-91
2023/09/02 07:48:52;;;;;;;6.10;4.20;;;19.20;84.40;;;;;;5061780;28;20454;-91
2023/09/02 07:51:21;;;;;;;6.90;4.30;;;19.20;84.40;;;;;;5054784;28;20582;-92
2023/09/02 07:53:49;;;;;;;6.30;4.33;;;19.20;84.30;;;;;;5065575;28;20454;-92
2023/09/02 07:56:17;;;;;;;6.70;3.73;;;19.20;84.10;;;;;;5079848;28;20981;-92
2023/09/02 07:58:49;;;;;;;6.60;4.90;;;19.20;84.10;;;;;;5078043;28;20478;-91
2023/09/02 08:01:17;;;;;;;7.67;4.87;;;19.30;83.90;;;;;;5060331;28;20466;-91
2023/09/02 08:03:46;;;;;;;5.70;4.17;;;19.30;83.90;;;;;;5063750;28;20454;-91
2023/09/02 08:06:14;;;;;;;7.10;4.70;;;19.30;83.90;;;;;;5071101;28;20979;-90
2023/09/02 08:08:42;;;;;;;5.70;3.73;;;19.30;83.90;;;;;;5071461;28;20450;-91
2023/09/02 08:11:11;;;;;;;5.90;3.90;;;19.40;83.70;;;;;;5064835;28;20522;-91
2023/09/02 08:13:39;;;;;;;5.57;3.50;;;19.40;83.60;;;;;;5069328;28;20531;-90
2023/09/02 08:16:09;;;;;;;5.50;3.20;;;19.40;83.60;;;;;;5075609;28;20457;-91
2023/09/02 08:18:37;;;;;;;5.30;3.40;;;19.40;83.50;;;;;;5066643;28;20462;-91
2023/09/02 08:21:09;;;;;;;6.50;3.67;;;19.50;83.50;;;;;;5060558;28;20840;-91
2023/09/02 08:23:39;;;;;;;5.43;3.47;;;19.50;83.30;;;;;;5060488;28;20472;-91
2023/09/02 08:26:12;;;;;;;6.90;3.63;;;19.50;83.30;;;;;;5077200;28;20523;-91
2023/09/02 08:28:42;;;;;;;6.27;3.73;;;19.60;83.20;;;;;;5069684;28;20468;-91
2023/09/02 08:31:15;;;;;;;6.90;3.87;;;19.60;83.10;;;;;;5057691;28;20557;-91
2023/09/02 08:33:43;;;;;;;5.40;3.33;;;19.60;83.10;;;;;;5067748;28;20468;-91
2023/09/02 08:36:15;;;;;;;5.20;2.90;;;19.60;83.10;;;;;;5078527;28;20525;-91
2023/09/02 08:38:43;;;;;;;5.50;3.40;;;19.60;83.10;;;;;;5063626;28;20976;-91
2023/09/02 08:41:26;;;;;;;8.93;3.33;;;19.60;83.20;;;;;;5057809;28;20458;-91
2023/09/02 08:43:55;;;;;;;5.20;3.00;;;19.60;83.10;;;;;;5066213;28;20457;-90
2023/09/02 08:46:27;;;;;;;5.50;3.20;;;19.70;83.00;;;;;;5057694;28;20450;-90
2023/09/02 08:48:57;;;;;;;8.50;3.43;;;19.70;83.00;;;;;;5063904;28;20806;-85
2023/09/02 08:51:27;;;;;;;5.33;3.30;;;19.70;82.90;;;;;;5060329;28;20445;-84
2023/09/02 08:53:56;;;;;;;6.03;3.10;;;19.70;82.80;;;;;;5082047;28;20806;-83
2023/09/02 08:56:25;;;;;;;6.33;3.47;;;19.70;82.80;;;;;;5064520;28;20468;-89
2023/09/02 08:58:55;;;;;;;5.17;3.07;;;19.80;82.80;;;;;;5063314;28;20545;-88
2023/09/02 09:01:25;;;;;;;9.27;2.83;;;19.80;82.70;;;;;;5082243;28;20722;-87
2023/09/02 09:03:55;;;;;;;7.90;3.80;;;19.90;82.60;;;;;;5063678;28;20480;-88
2023/09/02 09:06:25;;;;;;;4.73;2.60;;;19.90;82.50;;;;;;5060995;28;21003;-87
2023/09/02 09:08:55;;;;;;;4.60;2.47;;;20.00;82.30;;;;;;5067490;28;20437;-86
2023/09/02 09:11:26;;;;;;;6.23;3.17;;;20.00;82.30;;;;;;5082620;28;20481;-85
2023/09/02 09:14:01;;;;;;;5.30;3.07;;;20.00;82.10;;;;;;5064830;28;20465;-85
2023/09/02 09:16:37;;;;;;;5.23;2.87;;;20.00;82.10;;;;;;5068676;28;20453;-85
2023/09/02 09:19:06;;;;;;;5.53;2.87;;;20.00;82.10;;;;;;5062030;28;20887;-87
2023/09/02 09:21:40;;;;;;;5.17;2.67;;;20.00;82.10;;;;;;5062240;28;20460;-78
2023/09/02 09:24:11;;;;;;;6.43;2.67;;;19.90;82.10;;;;;;5063890;28;20461;-78
2023/09/02 09:26:42;;;;;;;5.13;1.97;;;19.90;82.10;;;;;;5064614;28;20453;-78
2023/09/02 09:29:12;;;;;;;6.00;2.97;;;19.90;82.20;;;;;;5065698;28;20568;-77
2023/09/02 09:31:42;;;;;;;5.93;2.40;;;19.80;82.20;;;;;;5062791;28;20552;-78
2023/09/02 09:34:11;;;;;;;4.13;2.20;;;19.90;82.30;;;;;;5065706;28;20459;-78
2023/09/02 09:36:39;;;;;;;4.40;2.10;;;20.00;82.20;;;;;;5066160;28;20450;-78
2023/09/02 09:39:11;;;;;;;5.00;2.00;;;20.00;82.00;;;;;;5069389;28;20518;-79
2023/09/02 09:41:47;;;;;;;4.90;2.40;;;20.00;82.00;;;;;;5068106;28;20487;-79
2023/09/02 09:44:18;;;;;;;4.90;2.33;;;20.10;81.90;;;;;;5061981;28;20449;-79
2023/09/02 09:46:51;;;;;;;5.00;2.13;;;20.10;81.90;;;;;;5063148;28;20490;-79
2023/09/02 09:49:23;;;;;;;7.00;2.20;;;20.10;81.80;;;;;;5062737;28;20493;-79
2023/09/02 09:51:53;;;;;;;12.80;2.60;;;20.10;81.90;;;;;;5064557;28;21037;-79
2023/09/02 09:54:35;;;;;;;7.87;2.43;;;20.20;81.80;;;;;;5063124;28;20458;-78
2023/09/02 09:57:05;;;;;;;4.43;2.20;;;20.20;81.70;;;;;;5064229;28;20485;-79
2023/09/02 09:59:33;;;;;;;4.57;2.00;;;20.20;81.80;;;;;;5057996;28;21010;-76
2023/09/02 10:02:04;;;;;;;5.97;1.90;;;20.20;81.80;;;;;;5066690;28;21114;-78
2023/09/02 10:04:32;;;;;;;5.00;2.03;;;20.20;81.80;;;;;;5069247;28;20544;-78
2023/09/02 10:07:01;;;;;;;4.50;2.17;;;20.20;81.80;;;;;;5066732;28;20465;-78
2023/09/02 10:09:42;;;;;;;3.87;1.50;;;20.30;81.70;;;;;;5067083;28;20454;-77
2023/09/02 10:12:12;;;;;;;4.57;1.80;;;20.30;81.60;;;;;;5068285;28;20453;-79
2023/09/02 10:14:41;;;;;;;4.50;1.87;;;20.30;81.60;;;;;;5069682;28;21791;-78
2023/09/02 10:17:11;;;;;;;4.30;1.90;;;20.30;81.50;;;;;;5069490;28;20462;-79
2023/09/02 10:19:40;;;;;;;5.57;1.77;;;20.30;81.60;;;;;;5071045;28;20536;-78
2023/09/02 10:22:09;;;;;;;4.67;1.70;;;20.30;81.70;;;;;;5065675;28;20537;-78
2023/09/02 10:24:45;;;;;;;4.43;1.67;;;20.30;81.60;;;;;;5071009;28;20539;-78
2023/09/02 10:27:18;;;;;;;4.67;1.57;;;20.40;81.60;;;;;;5065656;28;20457;-79
2023/09/02 10:29:53;;;;;;;4.20;1.80;;;20.40;81.60;;;;;;5065522;28;20545;-78
2023/09/02 10:32:25;;;;;;;5.20;2.23;;;20.40;81.60;;;;;;5068994;28;21006;-79
2023/09/02 10:34:59;;;;;;;4.80;2.00;;;20.40;81.50;;;;;;5065281;28;20536;-78
2023/09/02 10:37:35;;;;;;;5.47;2.50;;;20.50;81.60;;;;;;5078087;28;21001;-78
2023/09/02 10:40:06;;;;;;;4.67;2.30;;;20.50;81.60;;;;;;5077989;28;20807;-77
2023/09/02 10:42:35;;;;;;;5.03;2.07;;;20.60;81.70;;;;;;5066492;28;20916;-78
2023/09/02 10:45:05;;;;;;;5.10;2.10;;;20.60;81.70;;;;;;5062864;28;20541;-77
2023/09/02 10:47:36;;;;;;;3.80;1.67;;;20.70;81.60;;;;;;5068446;28;20449;-76
2023/09/02 10:50:05;;;;;;;4.17;1.90;;;20.70;81.40;;;;;;5067375;28;20886;-78
2023/09/02 10:52:33;;;;;;;4.10;1.80;;;20.80;81.30;;;;;;5067013;28;20453;-78
2023/09/02 10:55:04;;;;;;;3.97;1.90;;;20.80;81.20;;;;;;5066978;28;20947;-84
2023/09/02 10:57:47;;;;;;;5.90;2.25;;;20.90;81.20;;;;;;5068951;28;20456;-79
2023/09/02 11:00:20;;;;;;;6.17;3.80;;;21.00;81.10;;;;;;5065950;28;20216;-79
2023/09/02 11:02:52;;;;;;;5.93;3.13;;;21.00;81.20;;;;;;5065786;28;20450;-78
2023/09/02 11:05:20;;;;;;;4.93;2.63;;;21.10;81.20;;;;;;5066903;28;20817;-78
2023/09/02 11:07:49;;;;;;;4.60;2.40;;;21.10;81.30;;;;;;5067870;28;21177;-79
2023/09/02 11:10:18;;;;;;;4.83;2.73;;;21.20;81.20;;;;;;5065424;28;20890;-78
2023/09/02 11:13:06;;;;;;;5.43;3.67;;;21.20;81.00;;;;;;5066872;28;20830;-78
2023/09/02 11:15:34;;;;;;;5.00;3.13;;;21.30;80.90;;;;;;5081518;28;20462;-78
2023/09/02 11:18:32;;;;;;;6.17;3.60;;;21.30;80.90;;;;;;5068511;28;20445;-78
2023/09/02 11:21:00;;;;;;;5.77;3.50;;;21.40;80.70;;;;;;5066981;28;20556;-78
2023/09/02 11:23:28;;;;;;;5.17;2.97;;;21.40;80.80;;;;;;5068866;28;21139;-78
2023/09/02 11:26:07;;;;;;;5.83;3.20;;;21.40;80.70;;;;;;5067103;28;20445;-78
2023/09/02 11:28:36;;;;;;;7.83;3.43;;;21.50;80.60;;;;;;5066314;28;20461;-78
2023/09/02 11:31:10;;;;;;;5.20;3.60;;;21.50;80.70;;;;;;5065379;28;20503;-78
2023/09/02 11:33:45;;;;;;;7.10;3.40;;;21.60;80.70;;;;;;5082083;28;20830;-78
2023/09/02 11:36:17;;;;;;;12.37;4.50;;;21.70;80.50;;;;;;5067266;28;20560;-78
2023/09/02 11:38:45;;;;;;;6.40;4.17;;;21.70;80.50;;;;;;5065348;28;20542;-78
2023/09/02 11:41:21;;;;;;;5.37;3.80;;;21.80;80.50;;;;;;5067616;28;20584;-78
2023/09/02 11:43:53;;;;;;;5.70;3.67;;;21.90;80.50;;;;;;5064770;28;20454;-78
2023/09/02 11:46:21;;;;;;;6.40;3.73;;;22.00;80.40;;;;;;5065897;28;20489;-78
2023/09/02 11:48:50;;;;;;;5.50;3.97;;;22.00;80.30;;;;;;5068432;28;20553;-78
2023/09/02 11:51:20;;;;;;;6.57;3.73;;;22.10;80.10;;;;;;5066025;28;20908;-78
2023/09/02 11:53:48;;;;;;;7.33;3.37;;;22.10;80.00;;;;;;5068126;28;20858;-78
2023/09/02 11:56:16;;;;;;;5.17;3.07;;;22.20;79.80;;;;;;5060200;28;20493;-78
2023/09/02 11:58:44;;;;;;;5.07;3.20;;;22.20;79.70;;;;;;5068430;28;20852;-78
2023/09/02 12:01:14;;;;;;;5.00;2.97;;;22.30;79.50;;;;;;5060511;28;20536;-78
2023/09/02 12:03:42;;;;;;;4.97;3.20;;;22.30;79.10;;;;;;5067813;28;20449;-78
2023/09/02 12:06:12;;;;;;;4.20;2.30;;;22.30;79.00;;;;;;5065794;28;20442;-78
2023/09/02 12:08:40;;;;;;;4.90;2.70;;;22.40;79.00;;;;;;5065093;28;21210;-79
2023/09/02 12:11:08;;;;;;;6.17;3.27;;;22.40;78.60;;;;;;5065467;28;21393;-78
2023/09/02 12:13:38;;;;;;;5.80;2.53;;;22.50;78.40;;;;;;5063978;28;20457;-78
2023/09/02 12:16:06;;;;;;;5.17;2.70;;;22.50;78.10;;;;;;5063690;28;20457;-79
2023/09/02 12:18:34;;;;;;;4.57;2.57;;;22.60;77.90;;;;;;5082590;28;20468;-79
2023/09/02 12:21:03;;;;;;;4.60;2.30;;;22.60;77.60;;;;;;5066330;28;20576;-78
2023/09/02 12:23:33;;;;;;;7.63;2.10;;;22.60;77.40;;;;;;5061934;28;21147;-79
2023/09/02 12:26:06;;;;;;;4.50;2.30;;;22.70;77.10;;;;;;5065754;28;20475;-79
2023/09/02 12:28:34;;;;;;;4.50;1.70;;;22.70;76.90;;;;;;5066397;28;21042;-79
2023/09/02 12:31:03;;;;;;;5.73;1.83;;;22.70;76.80;;;;;;5062133;28;20462;-78
2023/09/02 12:33:32;;;;;;;4.73;1.73;;;22.70;76.60;;;;;;5064186;28;21125;-77
2023/09/02 12:36:04;;;;;;;4.40;2.07;;;22.80;76.40;;;;;;5066429;28;20446;-78
2023/09/02 12:41:38;;;;;;;4.90;1.80;;;22.80;75.90;;;;;;5129443;27;21081;-78
2023/09/02 12:44:15;;;;;;;4.67;1.77;;;22.90;75.20;;;;;;5138806;27;20465;-78
2023/09/02 12:46:43;;;;;;;4.97;1.10;;;22.90;74.90;;;;;;5141753;27;20449;-78
2023/09/02 12:49:11;;;;;;;3.97;1.40;;;22.90;74.60;;;;;;5122899;27;20454;-77
2023/09/02 12:51:39;;;;;;;3.50;1.00;;;22.90;74.60;;;;;;5135118;27;20443;-78
2023/09/02 12:54:10;;;;;;;4.57;1.20;;;22.90;74.30;;;;;;5135665;27;20461;-78
2023/09/02 12:56:40;;;;;;;3.90;1.37;;;22.90;74.20;;;;;;5138760;27;20482;-78
2023/09/02 12:59:08;;;;;;;4.10;1.10;;;23.00;74.00;;;;;;5135436;27;20458;-78
2023/09/02 13:01:39;;;;;;;3.93;1.00;;;23.10;73.60;;;;;;5127963;27;20566;-78
2023/09/02 13:04:07;;;;;;;3.70;1.00;;;23.10;73.30;;;;;;5125590;27;21015;-78